Eddystone, Pennsylvania
Current Conditions -  °F | °C
As of 11:54 PM on Sunday 19 Oct 2014 (Local Time) from KPHL Reporting Station
Scattered Clouds Scattered Clouds  
Wind Chill: 46°   Ceiling: Unl
Heat Index: 46°   Visibility: 10mi
Dew Point: 28°   Wind: 3mph
Humidity: 50%   Direction: NA
Pressure: 30.1"   Gusts: NA
Location:  39.8649°N, 75.3407°W
Report Text: KPHL 200354Z VRB03KT 10SM SCT250 08/M02 A3010 RMK AO2 SLP192 T00781022 $
Loading
Personal Weather Stations






























Interactive Weather Map
Tropical Storm Tracking
New forecast layout! Learn more

10-Day Weather Forecast

Advertisements
Track Severe Weather on mobile